Overview Statistics Trail Chart Weather Telemetry Raw packets
 

This is the latest recevied weather packets stored in our database for station/object K7MT-WX. If no packets are shown the sender has not sent any weather packets the latest 10 day(s).

<< 5 6 7 8 9 10 11 >>
Time Temp. Humidity Pressure Rain* Wind** Luminosity Snow
1788470508 24.44° C 30% 1008.2 hPa 0 mm - - -
1788469608 23.89° C 29% 1008.2 hPa 0 mm - - -
1788468678 23.89° C 29% 1008.2 hPa 0 mm - - -
1788467778 23.89° C 30% 1008.2 hPa 0 mm - - -
1788466878 23.89° C 30% 1008.4 hPa 0 mm - - -
1788465948 25° C 28% 1008.4 hPa 0 mm - - -
1788465048 24.44° C 26% 1008.5 hPa 0 mm - - -
1788464118 25° C 28% 1008.7 hPa 0 mm - - -
1788463218 23.33° C 31% 1008.9 hPa 0 mm - - -
1788462318 23.89° C 32% 1008.9 hPa 0 mm - - -
1788461388 23.33° C 33% 1009 hPa 0 mm - - -
1788460488 23.89° C 33% 1009.2 hPa 0 mm - - -
1788459588 22.78° C 33% 1009.5 hPa 0 mm - - -
1788458688 21.67° C 39% 1009.8 hPa 0 mm - - -
1788457758 21.11° C 43% 1009.9 hPa 0 mm - - -
1788456828 21.11° C 43% 1010.1 hPa 0 mm - - -
1788455928 20° C 48% 1010.1 hPa 0 mm - - -
1788455028 18.33° C 61% 1010.2 hPa 0 mm - - -
1788454128 18.33° C 60% 1010 hPa 0 mm - - -
1788453198 16.67° C 66% 1010.2 hPa 0 mm - - -
1788452298 15° C 70% 1010.4 hPa 0 mm - - -
1788451368 14.44° C 71% 1010.6 hPa 0 mm - - -
1788450438 15.56° C 63% 1010.5 hPa 0 mm - - -
1788449508 14.44° C 67% 1010.7 hPa 0 mm - - -
1788448608 12.78° C 71% 1010.9 hPa 0 mm - - -

* Rain latest hour (hover to see other rain measurements)
** Current wind speed in m/s (hover to see current wind gust speed)